createdAt,value
2023-03-25T00:00:16.906Z,7.74
2023-03-25T00:02:47.608Z,7.77
2023-03-25T00:05:16.376Z,7.79
2023-03-25T00:07:45.995Z,7.81
2023-03-25T00:10:13.920Z,7.83
2023-03-25T00:12:42.922Z,7.85
2023-03-25T00:15:11.530Z,7.86
2023-03-25T00:17:38.587Z,7.84
2023-03-25T00:20:09.900Z,7.84
2023-03-25T00:22:40.996Z,7.85
2023-03-25T00:25:09.589Z,7.84
2023-03-25T00:27:36.810Z,7.86
2023-03-25T00:30:04.454Z,7.86
2023-03-25T00:32:31.208Z,7.86
2023-03-25T00:34:57.896Z,7.87
2023-03-25T00:37:25.686Z,7.86
2023-03-25T00:39:52.323Z,7.87
2023-03-25T00:42:26.394Z,7.85
2023-03-25T00:44:53.970Z,7.88
2023-03-25T00:47:21.995Z,7.87
2023-03-25T00:49:50.027Z,7.88
2023-03-25T00:52:16.897Z,7.87
2023-03-25T00:54:45.870Z,7.86
2023-03-25T00:57:12.842Z,7.82
2023-03-25T00:59:39.622Z,7.81
2023-03-25T01:02:07.180Z,7.80
2023-03-25T01:04:35.372Z,7.79
2023-03-25T01:07:03.618Z,7.79
2023-03-25T01:09:31.302Z,7.80
2023-03-25T01:11:58.127Z,7.82
2023-03-25T01:14:27.404Z,7.82
2023-03-25T01:16:54.936Z,7.85
2023-03-25T01:19:22.868Z,7.84
2023-03-25T01:21:49.671Z,7.82
2023-03-25T01:24:16.760Z,7.79
2023-03-25T01:26:45.925Z,7.78
2023-03-25T01:29:14.943Z,7.74
2023-03-25T01:31:41.745Z,7.69
2023-03-25T01:34:08.780Z,7.61
2023-03-25T01:36:41.608Z,7.57
2023-03-25T01:39:09.143Z,7.50
2023-03-25T01:41:49.036Z,7.46
2023-03-25T01:44:19.398Z,7.41
2023-03-25T01:46:53.283Z,7.36
2023-03-25T01:49:30.269Z,7.33
2023-03-25T01:52:02.680Z,7.30
2023-03-25T01:54:29.516Z,7.25
2023-03-25T01:56:56.559Z,7.22
2023-03-25T01:59:27.197Z,7.19
2023-03-25T02:01:56.114Z,7.16
2023-03-25T02:05:03.979Z,7.15
2023-03-25T02:07:37.917Z,7.12
2023-03-25T02:10:07.755Z,7.12
2023-03-25T02:12:34.581Z,7.15
2023-03-25T02:15:04.477Z,7.17
2023-03-25T02:18:00.332Z,7.17
2023-03-25T02:21:08.332Z,7.20
2023-03-25T02:23:48.104Z,7.23
2023-03-25T02:26:32.922Z,7.26
2023-03-25T02:29:55.196Z,7.26
2023-03-25T02:32:40.408Z,7.27
2023-03-25T02:35:42.253Z,7.26
2023-03-25T02:39:04.581Z,7.27
2023-03-25T02:41:55.999Z,7.28
2023-03-25T02:44:36.399Z,7.29
2023-03-25T02:47:09.075Z,7.27
2023-03-25T02:49:41.018Z,7.23
2023-03-25T02:52:39.845Z,7.19
2023-03-25T02:55:10.803Z,7.16
2023-03-25T02:57:46.599Z,7.13
2023-03-25T03:03:04.323Z,7.06
2023-03-25T03:05:36.053Z,7.03
2023-03-25T03:08:27.608Z,7.00
2023-03-25T03:11:15.684Z,6.97
2023-03-25T03:14:12.008Z,6.94
2023-03-25T03:16:58.584Z,6.92
2023-03-25T03:19:46.686Z,6.90
2023-03-25T03:22:45.758Z,6.87
2023-03-25T03:25:28.349Z,6.84
2023-03-25T03:28:38.997Z,6.83
2023-03-25T03:31:48.234Z,6.82
2023-03-25T03:34:30.789Z,6.79
2023-03-25T03:37:00.779Z,6.77
2023-03-25T03:39:36.481Z,6.74
2023-03-25T03:42:14.201Z,6.71
2023-03-25T03:44:44.464Z,6.70
2023-03-25T03:47:16.471Z,6.68
2023-03-25T03:49:48.033Z,6.67
2023-03-25T03:52:21.606Z,6.65
2023-03-25T03:54:54.851Z,6.64
2023-03-25T03:57:30.422Z,6.63
2023-03-25T04:00:02.612Z,6.62
2023-03-25T04:02:34.586Z,6.60
2023-03-25T04:05:01.762Z,6.58
2023-03-25T04:07:42.390Z,6.57
2023-03-25T04:10:15.129Z,6.55
2023-03-25T04:12:50.419Z,6.54
2023-03-25T04:15:17.612Z,6.51
2023-03-25T04:17:44.673Z,6.49
2023-03-25T04:20:15.702Z,6.49
2023-03-25T04:22:45.679Z,6.47
2023-03-25T04:25:14.127Z,6.46
2023-03-25T04:27:41.202Z,6.45
2023-03-25T04:30:09.248Z,6.44
2023-03-25T04:32:36.038Z,6.44
2023-03-25T04:35:03.571Z,6.43
2023-03-25T04:37:30.307Z,6.41
2023-03-25T04:40:00.237Z,6.39
2023-03-25T04:42:32.875Z,6.36
2023-03-25T04:45:00.079Z,6.34
2023-03-25T04:47:27.750Z,6.33
2023-03-25T04:49:54.499Z,6.31
2023-03-25T04:52:21.303Z,6.32
2023-03-25T04:54:48.030Z,6.30
2023-03-25T04:57:15.399Z,6.27
2023-03-25T04:59:42.216Z,6.27
2023-03-25T05:02:13.484Z,6.25
2023-03-25T05:04:47.830Z,6.25
2023-03-25T05:07:16.604Z,6.24
2023-03-25T05:09:43.448Z,6.22
2023-03-25T05:12:11.519Z,6.23
2023-03-25T05:14:38.375Z,6.26
2023-03-25T05:17:05.041Z,6.28
2023-03-25T05:19:35.156Z,6.31
2023-03-25T05:22:03.142Z,6.34
2023-03-25T05:24:30.586Z,6.38
2023-03-25T05:26:57.236Z,6.39
2023-03-25T05:29:23.997Z,6.42
2023-03-25T05:31:50.696Z,6.43
2023-03-25T05:34:17.691Z,6.44
2023-03-25T05:36:44.688Z,6.45
2023-03-25T05:39:11.824Z,6.47
2023-03-25T05:41:41.750Z,6.47
2023-03-25T05:44:10.231Z,6.47
2023-03-25T05:46:37.013Z,6.47
2023-03-25T05:49:03.866Z,6.48
2023-03-25T05:51:34.233Z,6.50
2023-03-25T05:54:01.847Z,6.52
2023-03-25T05:56:29.462Z,6.51
2023-03-25T05:58:57.731Z,6.50
2023-03-25T06:01:33.715Z,6.48
2023-03-25T06:04:02.642Z,6.47
2023-03-25T06:06:30.503Z,6.45
2023-03-25T06:08:57.813Z,6.44
2023-03-25T06:11:24.515Z,6.42
2023-03-25T06:13:51.255Z,6.40
2023-03-25T06:16:20.381Z,6.39
2023-03-25T06:18:50.856Z,6.40
2023-03-25T06:21:19.839Z,6.38
2023-03-25T06:23:49.514Z,6.38
2023-03-25T06:26:20.106Z,6.37
2023-03-25T06:28:47.130Z,6.41
2023-03-25T06:31:16.873Z,6.47
2023-03-25T06:33:44.442Z,6.53
2023-03-25T06:36:12.786Z,6.59
2023-03-25T06:38:40.036Z,6.65
2023-03-25T06:41:07.308Z,6.71
2023-03-25T06:43:34.801Z,6.79
2023-03-25T06:46:01.546Z,6.84
2023-03-25T06:48:28.333Z,6.88
2023-03-25T06:50:55.480Z,6.93
2023-03-25T06:53:22.390Z,7.00
2023-03-25T06:55:50.461Z,7.07
2023-03-25T06:58:18.426Z,7.13
2023-03-25T07:00:46.930Z,7.18
2023-03-25T07:03:13.721Z,7.23
2023-03-25T07:05:42.493Z,7.28
2023-03-25T07:08:09.288Z,7.32
2023-03-25T07:10:35.933Z,7.38
2023-03-25T07:13:02.672Z,7.45
2023-03-25T07:15:29.332Z,7.48
2023-03-25T07:17:56.159Z,7.52
2023-03-25T07:20:23.019Z,7.55
2023-03-25T07:22:49.716Z,7.56
2023-03-25T07:25:16.434Z,7.59
2023-03-25T07:27:43.106Z,7.62
2023-03-25T07:30:10.256Z,7.63
2023-03-25T07:32:37.001Z,7.64
2023-03-25T07:35:04.403Z,7.67
2023-03-25T07:37:31.118Z,7.66
2023-03-25T07:39:57.801Z,7.65
2023-03-25T07:42:24.473Z,7.68
2023-03-25T07:44:52.054Z,7.65
2023-03-25T07:47:18.719Z,7.68
2023-03-25T07:49:47.851Z,7.75
2023-03-25T07:52:14.508Z,7.87
2023-03-25T07:54:41.149Z,7.98
2023-03-25T07:57:07.930Z,8.10
2023-03-25T07:59:34.753Z,8.15
2023-03-25T08:02:01.540Z,8.19
2023-03-25T08:04:28.322Z,8.22
2023-03-25T08:06:55.121Z,8.23
2023-03-25T08:09:21.835Z,8.28
2023-03-25T08:11:49.081Z,8.31
2023-03-25T08:14:15.766Z,8.27
2023-03-25T08:16:42.501Z,8.26
2023-03-25T08:19:09.197Z,8.28
2023-03-25T08:21:35.824Z,8.33
2023-03-25T08:24:04.844Z,8.42
2023-03-25T08:26:35.394Z,8.49
2023-03-25T08:29:02.836Z,8.57
2023-03-25T08:31:32.122Z,8.61
2023-03-25T08:34:00.581Z,8.64
2023-03-25T08:36:27.830Z,8.71
2023-03-25T08:38:54.927Z,8.81
2023-03-25T08:41:21.662Z,8.84
2023-03-25T08:43:49.298Z,8.93
2023-03-25T08:46:16.381Z,9.02
2023-03-25T08:48:44.030Z,9.09
2023-03-25T08:51:11.779Z,9.17
2023-03-25T08:53:38.387Z,9.28
2023-03-25T08:56:05.624Z,9.40
2023-03-25T08:58:32.725Z,9.51
2023-03-25T09:00:59.387Z,9.53
2023-03-25T09:03:29.008Z,9.51
2023-03-25T09:05:56.049Z,9.51
2023-03-25T09:08:23.130Z,9.54
2023-03-25T09:10:49.940Z,9.58
2023-03-25T09:13:16.678Z,9.63
2023-03-25T09:15:43.424Z,9.64
2023-03-25T09:18:10.360Z,9.83
2023-03-25T09:20:37.097Z,10.29
2023-03-25T09:23:03.918Z,10.58
2023-03-25T09:25:30.607Z,10.65
2023-03-25T09:27:57.249Z,10.54
2023-03-25T09:30:23.894Z,10.73
2023-03-25T09:32:50.737Z,11.18
2023-03-25T09:35:17.433Z,11.64
2023-03-25T09:37:44.618Z,12.36
2023-03-25T09:40:16.466Z,13.14
2023-03-25T09:42:53.463Z,14.24
2023-03-25T09:45:35.634Z,15.42
2023-03-25T09:48:13.588Z,15.76
2023-03-25T09:50:43.918Z,16.20
2023-03-25T09:53:10.704Z,15.76
2023-03-25T09:55:42.140Z,15.88
2023-03-25T09:58:41.594Z,16.14
2023-03-25T10:01:28.595Z,16.00
2023-03-25T10:04:23.433Z,15.31
2023-03-25T10:06:55.830Z,14.18
2023-03-25T10:09:28.391Z,13.30
2023-03-25T10:12:02.807Z,13.11
2023-03-25T10:15:06.355Z,12.64
2023-03-25T10:17:56.494Z,12.44
2023-03-25T10:20:38.451Z,12.23
2023-03-25T10:23:24.518Z,11.91
2023-03-25T10:25:58.088Z,13.04
2023-03-25T10:28:33.708Z,14.70
2023-03-25T10:31:02.662Z,15.80
2023-03-25T10:33:36.691Z,16.44
2023-03-25T10:36:07.683Z,17.20
2023-03-25T10:38:37.838Z,17.61
2023-03-25T10:41:16.705Z,17.56
2023-03-25T10:43:43.786Z,17.45
2023-03-25T10:46:31.771Z,17.56
2023-03-25T10:48:58.730Z,17.61
2023-03-25T10:51:36.411Z,17.13
2023-03-25T10:54:03.962Z,17.42
2023-03-25T10:56:39.305Z,17.44
2023-03-25T10:59:31.669Z,16.74
2023-03-25T11:01:59.349Z,15.70
2023-03-25T11:04:37.259Z,14.69
2023-03-25T11:07:08.465Z,14.20
2023-03-25T11:09:37.251Z,13.78
2023-03-25T11:12:06.498Z,13.50
2023-03-25T11:14:40.091Z,13.41
2023-03-25T11:17:18.515Z,13.31
2023-03-25T11:20:06.959Z,13.21
2023-03-25T11:22:38.530Z,13.11
2023-03-25T11:25:13.923Z,12.93
2023-03-25T11:27:47.520Z,12.90
2023-03-25T11:30:21.031Z,13.05
2023-03-25T11:33:04.945Z,13.16
2023-03-25T11:35:37.466Z,13.19
2023-03-25T11:38:19.866Z,13.16
2023-03-25T11:40:57.847Z,13.14
2023-03-25T11:43:38.583Z,13.15
2023-03-25T11:46:24.023Z,13.27
2023-03-25T11:48:50.908Z,13.35
2023-03-25T11:51:24.670Z,13.45
2023-03-25T11:53:59.287Z,13.43
2023-03-25T11:56:34.801Z,13.44
2023-03-25T11:59:02.785Z,13.35
2023-03-25T12:01:48.392Z,13.37
2023-03-25T12:04:23.323Z,13.43
2023-03-25T12:06:53.187Z,13.46
2023-03-25T12:09:19.908Z,13.51
2023-03-25T12:11:58.772Z,13.36
2023-03-25T12:14:53.223Z,13.15
2023-03-25T12:17:26.669Z,13.04
2023-03-25T12:20:25.763Z,12.95
2023-03-25T12:23:21.879Z,12.94
2023-03-25T12:26:04.521Z,12.97
2023-03-25T12:28:42.180Z,12.92
2023-03-25T12:31:20.604Z,13.06
2023-03-25T12:34:09.106Z,13.15
2023-03-25T12:36:51.623Z,13.16
2023-03-25T12:39:29.352Z,13.09
2023-03-25T12:42:16.799Z,12.99
2023-03-25T12:45:14.026Z,12.89
2023-03-25T12:47:56.206Z,12.88
2023-03-25T12:50:42.928Z,12.84
2023-03-25T12:53:54.735Z,12.67
2023-03-25T12:56:34.931Z,12.45
2023-03-25T12:59:20.071Z,12.32
2023-03-25T13:02:12.241Z,12.34
2023-03-25T13:04:45.025Z,12.56
2023-03-25T13:07:15.538Z,12.79
2023-03-25T13:09:44.870Z,13.07
2023-03-25T13:12:35.216Z,13.32
2023-03-25T13:15:08.218Z,13.50
2023-03-25T13:17:41.136Z,13.71
2023-03-25T13:20:11.008Z,13.90
2023-03-25T13:22:49.287Z,14.08
2023-03-25T13:25:24.925Z,14.06
2023-03-25T13:27:52.875Z,13.84
2023-03-25T13:30:30.478Z,13.53
2023-03-25T13:33:06.646Z,13.26
2023-03-25T13:35:52.642Z,13.03
2023-03-25T13:38:32.336Z,12.65
2023-03-25T13:41:33.116Z,12.17
2023-03-25T13:44:05.645Z,12.01
2023-03-25T13:47:08.894Z,11.97
2023-03-25T13:49:43.460Z,11.93
2023-03-25T13:52:11.345Z,12.10
2023-03-25T13:55:01.516Z,12.40
2023-03-25T13:57:40.372Z,12.73
2023-03-25T14:00:07.029Z,13.03
2023-03-25T14:02:58.801Z,13.26
2023-03-25T14:05:52.674Z,13.52
2023-03-25T14:08:39.481Z,13.69
2023-03-25T14:11:35.024Z,13.71
2023-03-25T14:14:11.978Z,13.69
2023-03-25T14:16:44.415Z,13.72
2023-03-25T14:19:14.706Z,13.61
2023-03-25T14:21:44.505Z,13.52
2023-03-25T14:24:37.117Z,13.41
2023-03-25T14:27:31.382Z,13.27
2023-03-25T14:30:18.782Z,13.16
2023-03-25T14:32:45.904Z,13.02
2023-03-25T14:35:37.138Z,12.66
2023-03-25T14:38:09.482Z,12.39
2023-03-25T14:40:47.400Z,12.28
2023-03-25T14:43:40.430Z,12.13
2023-03-25T14:46:13.454Z,12.13
2023-03-25T14:48:47.039Z,12.45
2023-03-25T14:51:22.382Z,12.96
2023-03-25T14:54:17.747Z,13.48
2023-03-25T14:56:52.334Z,14.00
2023-03-25T14:59:24.258Z,14.26
2023-03-25T15:01:52.152Z,14.44
2023-03-25T15:04:24.878Z,14.58
2023-03-25T15:06:52.050Z,14.43
2023-03-25T15:09:20.559Z,14.25
2023-03-25T15:12:00.019Z,14.04
2023-03-25T15:14:39.540Z,13.91
2023-03-25T15:17:11.067Z,13.85
2023-03-25T15:19:59.191Z,13.89
2023-03-25T15:22:25.868Z,13.91
2023-03-25T15:24:57.298Z,13.88
2023-03-25T15:27:45.293Z,13.77
2023-03-25T15:30:11.927Z,13.67
2023-03-25T15:32:44.636Z,13.52
2023-03-25T15:35:48.604Z,13.39
2023-03-25T15:38:47.628Z,13.30
2023-03-25T15:41:33.633Z,13.22
2023-03-25T15:44:37.640Z,13.13
2023-03-25T15:47:41.758Z,13.06
2023-03-25T15:50:18.150Z,13.12
2023-03-25T15:53:13.468Z,13.42
2023-03-25T15:55:47.787Z,13.69
2023-03-25T15:58:25.750Z,13.73
2023-03-25T16:00:56.133Z,13.63
2023-03-25T16:03:27.218Z,13.40
2023-03-25T16:06:00.701Z,13.22
2023-03-25T16:08:34.147Z,13.10
2023-03-25T16:11:24.969Z,13.02
2023-03-25T16:14:22.274Z,12.89
2023-03-25T16:16:55.104Z,12.81
2023-03-25T16:19:33.726Z,12.79
2023-03-25T16:22:08.385Z,12.75
2023-03-25T16:24:35.601Z,12.72
2023-03-25T16:27:18.977Z,12.72
2023-03-25T16:29:50.677Z,12.69
2023-03-25T16:32:26.406Z,12.71
2023-03-25T16:34:56.136Z,12.76
2023-03-25T16:37:25.300Z,12.93
2023-03-25T16:39:54.472Z,13.06
2023-03-25T16:42:26.997Z,13.19
2023-03-25T16:44:54.455Z,13.40
2023-03-25T16:47:22.694Z,13.41
2023-03-25T16:49:52.636Z,13.39
2023-03-25T16:52:25.168Z,13.36
2023-03-25T16:54:51.867Z,13.30
2023-03-25T16:57:32.491Z,13.23
2023-03-25T17:00:17.572Z,13.10
2023-03-25T17:02:46.086Z,13.02
2023-03-25T17:05:19.413Z,12.88
2023-03-25T17:07:48.735Z,12.75
2023-03-25T17:10:23.395Z,12.74
2023-03-25T17:12:57.510Z,12.72
2023-03-25T17:15:26.137Z,12.67
2023-03-25T17:18:00.130Z,12.66
2023-03-25T17:20:46.050Z,12.58
2023-03-25T17:23:27.428Z,12.45
2023-03-25T17:25:59.070Z,12.29
2023-03-25T17:28:40.116Z,12.14
2023-03-25T17:31:30.436Z,12.03
2023-03-25T17:34:18.144Z,11.91
2023-03-25T17:36:50.243Z,11.78
2023-03-25T17:39:16.836Z,11.69
2023-03-25T17:41:43.807Z,11.64
2023-03-25T17:44:15.530Z,11.59
2023-03-25T17:46:42.901Z,11.54
2023-03-25T17:49:18.257Z,11.48
2023-03-25T17:51:46.569Z,11.41
2023-03-25T17:54:14.643Z,11.33
2023-03-25T17:56:41.966Z,11.29
2023-03-25T17:59:19.235Z,11.23
2023-03-25T18:01:47.640Z,11.18
2023-03-25T18:04:15.501Z,11.11
2023-03-25T18:06:43.094Z,11.08
2023-03-25T18:09:21.996Z,11.04
2023-03-25T18:11:54.545Z,10.99
2023-03-25T18:14:23.216Z,10.91
2023-03-25T18:16:50.634Z,10.84
2023-03-25T18:19:20.895Z,10.76
2023-03-25T18:21:47.723Z,10.72
2023-03-25T18:24:14.654Z,10.72
2023-03-25T18:26:43.692Z,10.67
2023-03-25T18:29:23.204Z,10.64
2023-03-25T18:31:50.999Z,10.54
2023-03-25T18:34:18.733Z,10.47
2023-03-25T18:36:45.611Z,10.42
2023-03-25T18:39:15.126Z,10.35
2023-03-25T18:41:42.429Z,10.30
2023-03-25T18:44:09.632Z,10.27
2023-03-25T18:46:36.914Z,10.24
2023-03-25T18:49:06.885Z,10.20
2023-03-25T18:51:33.600Z,10.18
2023-03-25T18:54:00.415Z,10.14
2023-03-25T18:56:27.072Z,10.08
2023-03-25T18:58:53.750Z,10.03
2023-03-25T19:01:21.821Z,9.99
2023-03-25T19:03:50.535Z,9.90
2023-03-25T19:06:18.952Z,9.86
2023-03-25T19:08:47.228Z,9.84
2023-03-25T19:11:21.174Z,9.77
2023-03-25T19:13:50.385Z,9.74
2023-03-25T19:16:17.236Z,9.69
2023-03-25T19:18:44.028Z,9.67
2023-03-25T19:21:15.683Z,9.66
2023-03-25T19:23:43.129Z,9.64
2023-03-25T19:26:09.878Z,9.62
2023-03-25T19:28:36.576Z,9.63
2023-03-25T19:31:04.115Z,9.64
2023-03-25T19:33:31.802Z,9.64
2023-03-25T19:36:01.690Z,9.60
2023-03-25T19:38:29.867Z,9.54
2023-03-25T19:41:06.737Z,9.48
2023-03-25T19:43:33.833Z,9.45
2023-03-25T19:46:00.950Z,9.43
2023-03-25T19:48:29.755Z,9.38
2023-03-25T19:50:57.036Z,9.35
2023-03-25T19:53:25.488Z,9.32
2023-03-25T19:55:52.830Z,9.29
2023-03-25T19:58:21.687Z,9.27
2023-03-25T20:00:48.881Z,9.25
2023-03-25T20:03:15.724Z,9.23
2023-03-25T20:05:42.838Z,9.19
2023-03-25T20:08:09.717Z,9.17
2023-03-25T20:10:38.781Z,9.15
2023-03-25T20:13:05.784Z,9.15
2023-03-25T20:15:32.922Z,9.13
2023-03-25T20:17:59.703Z,9.10
2023-03-25T20:20:26.473Z,9.10
2023-03-25T20:22:53.185Z,9.09
2023-03-25T20:25:20.065Z,9.08
2023-03-25T20:27:47.404Z,9.05
2023-03-25T20:30:17.787Z,9.01
2023-03-25T20:32:46.522Z,9.00
2023-03-25T20:35:16.011Z,8.96
2023-03-25T20:37:44.453Z,8.91
2023-03-25T20:40:15.522Z,8.88
2023-03-25T20:42:44.238Z,8.85
2023-03-25T20:45:13.969Z,8.83
2023-03-25T20:47:41.909Z,8.82
2023-03-25T20:50:11.452Z,8.78
2023-03-25T20:52:38.251Z,8.74
2023-03-25T20:55:06.156Z,8.73
2023-03-25T20:57:33.315Z,8.69
2023-03-25T20:59:59.972Z,8.65
2023-03-25T21:02:27.091Z,8.63
2023-03-25T21:04:56.927Z,8.60
2023-03-25T21:07:27.846Z,8.54
2023-03-25T21:09:55.010Z,8.51
2023-03-25T21:12:29.744Z,8.50
2023-03-25T21:14:59.807Z,8.47
2023-03-25T21:17:27.932Z,8.45
2023-03-25T21:19:54.908Z,8.43
2023-03-25T21:22:22.722Z,8.42
2023-03-25T21:24:50.575Z,8.37
2023-03-25T21:27:17.767Z,8.33
2023-03-25T21:29:46.043Z,8.31
2023-03-25T21:32:13.928Z,8.30
2023-03-25T21:34:40.786Z,8.31
2023-03-25T21:37:07.476Z,8.30
2023-03-25T21:39:34.289Z,8.28
2023-03-25T21:42:09.870Z,8.26
2023-03-25T21:44:37.732Z,8.26
2023-03-25T21:47:08.677Z,8.24
2023-03-25T21:49:35.581Z,8.20
2023-03-25T21:52:02.315Z,8.18
2023-03-25T21:54:30.490Z,8.16
2023-03-25T21:56:57.199Z,8.16
2023-03-25T21:59:23.933Z,8.15
2023-03-25T22:01:52.811Z,8.14
2023-03-25T22:04:19.839Z,8.14
2023-03-25T22:06:46.553Z,8.10
2023-03-25T22:09:13.258Z,8.10
2023-03-25T22:11:40.037Z,8.09
2023-03-25T22:14:07.234Z,8.07
2023-03-25T22:16:34.065Z,8.07
2023-03-25T22:19:00.851Z,8.08
2023-03-25T22:21:30.244Z,8.06
2023-03-25T22:23:59.752Z,8.04
2023-03-25T22:26:27.906Z,8.01
2023-03-25T22:28:56.763Z,7.99
2023-03-25T22:31:26.120Z,7.97
2023-03-25T22:34:02.916Z,7.98
2023-03-25T22:36:34.038Z,7.94
2023-03-25T22:39:01.320Z,7.93
2023-03-25T22:41:28.096Z,7.89
2023-03-25T22:43:55.923Z,7.90
2023-03-25T22:46:23.368Z,7.89
2023-03-25T22:48:50.608Z,7.92
2023-03-25T22:51:20.342Z,7.92
2023-03-25T22:53:47.660Z,7.91
2023-03-25T22:56:14.671Z,7.89
2023-03-25T22:58:41.742Z,7.89
2023-03-25T23:01:24.442Z,7.86
2023-03-25T23:03:51.994Z,7.87
2023-03-25T23:06:20.415Z,7.84
2023-03-25T23:08:47.299Z,7.80
2023-03-25T23:11:17.433Z,7.79
2023-03-25T23:13:47.941Z,7.80
2023-03-25T23:16:17.635Z,7.79
2023-03-25T23:18:45.468Z,7.79
2023-03-25T23:21:14.795Z,7.77
2023-03-25T23:23:53.401Z,7.77
2023-03-25T23:26:50.327Z,7.75
2023-03-25T23:29:18.059Z,7.76
2023-03-25T23:31:45.353Z,7.75
2023-03-25T23:34:15.522Z,7.72
2023-03-25T23:36:43.380Z,7.71
2023-03-25T23:39:13.669Z,7.71
2023-03-25T23:41:40.430Z,7.69
2023-03-25T23:44:07.267Z,7.70
2023-03-25T23:46:36.554Z,7.68
2023-03-25T23:49:03.893Z,7.69
2023-03-25T23:51:36.778Z,7.69
2023-03-25T23:54:06.562Z,7.66
2023-03-25T23:56:33.571Z,7.65
2023-03-25T23:59:01.615Z,7.66
